Portada
METAR-TAF:

METAR-TAF

Aeroports :

Rønne, Dinamarca

latitud: 55-04N, longitud: 014-45E, altitud: 16 m

Observació

L'informe es va fer fa 40 minuts, a les 20:20 UTC
Vent 10 kt del Est/Nord-Est
Temperatura 22°C
Humitat 78%
Pressió 1012 hPa
Visibilitat 10 km o més

METAR: EKRN 252020Z AUTO 07010KT 9999 SCT080/// 22/18 Q1012

Hora: 23:00 (21:00 UTC)

Pronòstic

L'informe es va fer fa 6 hores i 37 minuts, a les 14:23 UTC
Pronòstic vàlid del 25 a les 15 UTC al 25 a les 21 UTC
Vent 15 kt del Est
Visibilitat 10 km o més
sense núvols per sota de 1500 mi sense presència de cumulonimbus.

TAF: EKRN 251423Z 2515/2521 08015KT CAVOK

Observacions i pronòstics meteorològics de més de 4000 aeroports (METAR i TAF).

Les estacions disponibles són els punts grocs i vermells al mapa.

Posi el ratolí al punt desitjat per veure el nom de l'estació.

Feu clic per veure les observacions i els pronòstics meteorològics.

Per canviar el mapa: feu clic els botons verds amb una creu de color negre per apropar; al botó verd amb un guió per allunyar la imatge; o en les fletxes verdes per a mapes adjacents.


METAR-TAF: